sensor_id;sensor_type;location;lat;lon;timestamp;temperature;humidity
2489;DHT22;1255;48.716;9.124;2023-05-02T00:00:45;8.40;99.90
2489;DHT22;1255;48.716;9.124;2023-05-02T00:03:12;8.40;99.90
2489;DHT22;1255;48.716;9.124;2023-05-02T00:05:39;8.40;99.90
2489;DHT22;1255;48.716;9.124;2023-05-02T00:08:06;8.30;99.90
2489;DHT22;1255;48.716;9.124;2023-05-02T00:10:33;8.30;99.90
2489;DHT22;1255;48.716;9.124;2023-05-02T00:13:01;8.20;99.90
2489;DHT22;1255;48.716;9.124;2023-05-02T00:15:28;8.20;99.90
2489;DHT22;1255;48.716;9.124;2023-05-02T00:17:55;8.10;99.90
2489;DHT22;1255;48.716;9.124;2023-05-02T00:20:22;8.10;99.90
2489;DHT22;1255;48.716;9.124;2023-05-02T00:22:49;8.00;99.90
2489;DHT22;1255;48.716;9.124;2023-05-02T00:25:16;7.90;99.90
2489;DHT22;1255;48.716;9.124;2023-05-02T00:27:43;7.90;99.90
2489;DHT22;1255;48.716;9.124;2023-05-02T00:30:13;7.80;99.90
2489;DHT22;1255;48.716;9.124;2023-05-02T00:32:40;7.70;99.90
2489;DHT22;1255;48.716;9.124;2023-05-02T00:35:07;7.70;99.90
2489;DHT22;1255;48.716;9.124;2023-05-02T00:37:34;7.70;99.90
2489;DHT22;1255;48.716;9.124;2023-05-02T00:40:00;7.70;99.90
2489;DHT22;1255;48.716;9.124;2023-05-02T00:42:28;7.70;99.90
2489;DHT22;1255;48.716;9.124;2023-05-02T00:44:56;7.80;99.90
2489;DHT22;1255;48.716;9.124;2023-05-02T00:47:24;7.80;99.90
2489;DHT22;1255;48.716;9.124;2023-05-02T00:49:51;7.90;99.90
2489;DHT22;1255;48.716;9.124;2023-05-02T00:52:18;7.90;99.90
2489;DHT22;1255;48.716;9.124;2023-05-02T00:54:46;8.00;99.90
2489;DHT22;1255;48.716;9.124;2023-05-02T00:57:13;8.10;99.90
2489;DHT22;1255;48.716;9.124;2023-05-02T00:59:40;8.10;99.90
2489;DHT22;1255;48.716;9.124;2023-05-02T01:02:19;8.10;99.90
2489;DHT22;1255;48.716;9.124;2023-05-02T01:04:59;8.10;99.90
2489;DHT22;1255;48.716;9.124;2023-05-02T01:10:02;8.10;99.90
2489;DHT22;1255;48.716;9.124;2023-05-02T01:12:37;8.10;99.90
2489;DHT22;1255;48.716;9.124;2023-05-02T01:15:11;8.10;99.90
2489;DHT22;1255;48.716;9.124;2023-05-02T01:17:38;8.20;99.90
2489;DHT22;1255;48.716;9.124;2023-05-02T01:20:12;8.20;99.90
2489;DHT22;1255;48.716;9.124;2023-05-02T01:22:40;8.20;99.90
2489;DHT22;1255;48.716;9.124;2023-05-02T01:25:14;8.30;99.90
2489;DHT22;1255;48.716;9.124;2023-05-02T01:27:50;8.30;99.90
2489;DHT22;1255;48.716;9.124;2023-05-02T01:30:24;8.30;99.90
2489;DHT22;1255;48.716;9.124;2023-05-02T01:32:54;8.30;99.90
2489;DHT22;1255;48.716;9.124;2023-05-02T01:35:24;8.30;99.90
2489;DHT22;1255;48.716;9.124;2023-05-02T01:37:52;8.30;99.90
2489;DHT22;1255;48.716;9.124;2023-05-02T01:40:22;8.30;99.90
2489;DHT22;1255;48.716;9.124;2023-05-02T01:42:51;8.20;99.90
2489;DHT22;1255;48.716;9.124;2023-05-02T01:45:19;8.30;99.90
2489;DHT22;1255;48.716;9.124;2023-05-02T01:47:48;8.30;99.90
2489;DHT22;1255;48.716;9.124;2023-05-02T01:50:18;8.30;99.90
2489;DHT22;1255;48.716;9.124;2023-05-02T01:52:48;8.30;99.90
2489;DHT22;1255;48.716;9.124;2023-05-02T01:55:17;8.30;99.90
2489;DHT22;1255;48.716;9.124;2023-05-02T01:57:45;8.30;99.90
2489;DHT22;1255;48.716;9.124;2023-05-02T02:00:15;8.30;99.90
2489;DHT22;1255;48.716;9.124;2023-05-02T02:02:43;8.20;99.90
2489;DHT22;1255;48.716;9.124;2023-05-02T02:05:12;8.20;99.90
2489;DHT22;1255;48.716;9.124;2023-05-02T02:07:39;8.10;99.90
2489;DHT22;1255;48.716;9.124;2023-05-02T02:10:07;8.10;99.90
2489;DHT22;1255;48.716;9.124;2023-05-02T02:12:37;8.00;99.90
2489;DHT22;1255;48.716;9.124;2023-05-02T02:15:09;8.00;99.90
2489;DHT22;1255;48.716;9.124;2023-05-02T02:17:42;7.90;99.90
2489;DHT22;1255;48.716;9.124;2023-05-02T02:20:14;7.90;99.90
2489;DHT22;1255;48.716;9.124;2023-05-02T02:22:43;7.80;99.90
2489;DHT22;1255;48.716;9.124;2023-05-02T02:25:11;7.80;99.90
2489;DHT22;1255;48.716;9.124;2023-05-02T02:27:39;7.70;99.90
2489;DHT22;1255;48.716;9.124;2023-05-02T02:30:08;7.70;99.90
2489;DHT22;1255;48.716;9.124;2023-05-02T02:32:35;7.60;99.90
2489;DHT22;1255;48.716;9.124;2023-05-02T02:35:01;7.60;99.90
2489;DHT22;1255;48.716;9.124;2023-05-02T02:37:31;7.50;99.90
2489;DHT22;1255;48.716;9.124;2023-05-02T02:40:04;7.50;99.90
2489;DHT22;1255;48.716;9.124;2023-05-02T02:42:35;7.40;99.90
2489;DHT22;1255;48.716;9.124;2023-05-02T02:45:12;7.40;99.90
2489;DHT22;1255;48.716;9.124;2023-05-02T02:47:45;7.40;99.90
2489;DHT22;1255;48.716;9.124;2023-05-02T02:50:18;7.40;99.90
2489;DHT22;1255;48.716;9.124;2023-05-02T02:52:52;7.40;99.90
2489;DHT22;1255;48.716;9.124;2023-05-02T02:55:29;7.30;99.90
2489;DHT22;1255;48.716;9.124;2023-05-02T02:58:00;7.30;99.90
2489;DHT22;1255;48.716;9.124;2023-05-02T03:00:31;7.30;99.90
2489;DHT22;1255;48.716;9.124;2023-05-02T03:02:59;7.20;99.90
2489;DHT22;1255;48.716;9.124;2023-05-02T03:05:26;7.20;99.90
2489;DHT22;1255;48.716;9.124;2023-05-02T03:07:58;7.20;99.90
2489;DHT22;1255;48.716;9.124;2023-05-02T03:10:25;7.20;99.90
2489;DHT22;1255;48.716;9.124;2023-05-02T03:12:52;7.20;99.90
2489;DHT22;1255;48.716;9.124;2023-05-02T03:15:49;7.20;99.90
2489;DHT22;1255;48.716;9.124;2023-05-02T03:18:20;7.20;99.90
2489;DHT22;1255;48.716;9.124;2023-05-02T03:20:47;7.20;99.90
2489;DHT22;1255;48.716;9.124;2023-05-02T03:23:15;7.30;99.90
2489;DHT22;1255;48.716;9.124;2023-05-02T03:25:41;7.30;99.90
2489;DHT22;1255;48.716;9.124;2023-05-02T03:28:08;7.40;99.90
2489;DHT22;1255;48.716;9.124;2023-05-02T03:30:35;7.40;99.90
2489;DHT22;1255;48.716;9.124;2023-05-02T03:33:05;7.40;99.90
2489;DHT22;1255;48.716;9.124;2023-05-02T03:35:33;7.50;99.90
2489;DHT22;1255;48.716;9.124;2023-05-02T03:37:59;7.50;99.90
2489;DHT22;1255;48.716;9.124;2023-05-02T03:40:27;7.60;99.90
2489;DHT22;1255;48.716;9.124;2023-05-02T03:42:54;7.60;99.90
2489;DHT22;1255;48.716;9.124;2023-05-02T03:45:21;7.60;99.90
2489;DHT22;1255;48.716;9.124;2023-05-02T03:47:47;7.70;99.90
2489;DHT22;1255;48.716;9.124;2023-05-02T03:50:14;7.70;99.90
2489;DHT22;1255;48.716;9.124;2023-05-02T03:52:41;7.80;99.90
2489;DHT22;1255;48.716;9.124;2023-05-02T03:55:08;7.90;99.90
2489;DHT22;1255;48.716;9.124;2023-05-02T03:57:36;8.00;99.90
2489;DHT22;1255;48.716;9.124;2023-05-02T04:00:03;8.00;99.90
2489;DHT22;1255;48.716;9.124;2023-05-02T04:02:30;8.10;99.90
2489;DHT22;1255;48.716;9.124;2023-05-02T04:04:57;8.20;99.90
2489;DHT22;1255;48.716;9.124;2023-05-02T04:07:24;8.20;99.90
2489;DHT22;1255;48.716;9.124;2023-05-02T04:09:50;8.30;99.90
2489;DHT22;1255;48.716;9.124;2023-05-02T04:12:17;8.30;99.90
2489;DHT22;1255;48.716;9.124;2023-05-02T04:14:45;8.30;99.90
2489;DHT22;1255;48.716;9.124;2023-05-02T04:17:12;8.40;99.90
2489;DHT22;1255;48.716;9.124;2023-05-02T04:19:41;8.40;99.90
2489;DHT22;1255;48.716;9.124;2023-05-02T04:22:07;8.50;99.90
2489;DHT22;1255;48.716;9.124;2023-05-02T04:24:34;8.50;99.90
2489;DHT22;1255;48.716;9.124;2023-05-02T04:27:01;8.60;99.90
2489;DHT22;1255;48.716;9.124;2023-05-02T04:29:27;8.70;99.90
2489;DHT22;1255;48.716;9.124;2023-05-02T04:31:55;8.70;99.90
2489;DHT22;1255;48.716;9.124;2023-05-02T04:34:22;8.70;99.90
2489;DHT22;1255;48.716;9.124;2023-05-02T04:36:49;8.70;99.90
2489;DHT22;1255;48.716;9.124;2023-05-02T04:39:15;8.80;99.90
2489;DHT22;1255;48.716;9.124;2023-05-02T04:41:42;8.80;99.90
2489;DHT22;1255;48.716;9.124;2023-05-02T04:44:09;8.80;99.90
2489;DHT22;1255;48.716;9.124;2023-05-02T04:46:35;8.80;99.90
2489;DHT22;1255;48.716;9.124;2023-05-02T04:49:03;8.90;99.90
2489;DHT22;1255;48.716;9.124;2023-05-02T04:51:30;8.90;99.90
2489;DHT22;1255;48.716;9.124;2023-05-02T04:56:24;9.00;99.90
2489;DHT22;1255;48.716;9.124;2023-05-02T04:58:51;9.00;99.90
2489;DHT22;1255;48.716;9.124;2023-05-02T05:01:18;9.00;99.90
2489;DHT22;1255;48.716;9.124;2023-05-02T05:03:44;9.10;99.90
2489;DHT22;1255;48.716;9.124;2023-05-02T05:06:13;9.10;99.90
2489;DHT22;1255;48.716;9.124;2023-05-02T05:08:40;9.10;99.90
2489;DHT22;1255;48.716;9.124;2023-05-02T05:11:06;9.10;99.90
2489;DHT22;1255;48.716;9.124;2023-05-02T05:13:33;9.10;99.90
2489;DHT22;1255;48.716;9.124;2023-05-02T05:16:00;9.10;99.90
2489;DHT22;1255;48.716;9.124;2023-05-02T05:18:27;9.20;99.90
2489;DHT22;1255;48.716;9.124;2023-05-02T05:20:54;9.20;99.90
2489;DHT22;1255;48.716;9.124;2023-05-02T05:23:22;9.30;99.90
2489;DHT22;1255;48.716;9.124;2023-05-02T05:25:48;9.40;99.90
2489;DHT22;1255;48.716;9.124;2023-05-02T05:28:15;9.40;99.90
2489;DHT22;1255;48.716;9.124;2023-05-02T05:30:42;9.50;99.90
2489;DHT22;1255;48.716;9.124;2023-05-02T05:33:09;9.60;99.90
2489;DHT22;1255;48.716;9.124;2023-05-02T05:35:36;9.70;99.90
2489;DHT22;1255;48.716;9.124;2023-05-02T05:38:02;9.70;99.90
2489;DHT22;1255;48.716;9.124;2023-05-02T05:40:30;9.80;99.90
2489;DHT22;1255;48.716;9.124;2023-05-02T05:42:57;9.90;99.90
2489;DHT22;1255;48.716;9.124;2023-05-02T05:45:24;9.90;99.90
2489;DHT22;1255;48.716;9.124;2023-05-02T05:47:53;10.00;99.90
2489;DHT22;1255;48.716;9.124;2023-05-02T05:50:20;10.10;99.90
2489;DHT22;1255;48.716;9.124;2023-05-02T05:52:47;10.10;99.90
2489;DHT22;1255;48.716;9.124;2023-05-02T05:55:13;10.20;99.90
2489;DHT22;1255;48.716;9.124;2023-05-02T05:57:41;10.20;99.90
2489;DHT22;1255;48.716;9.124;2023-05-02T06:00:09;10.20;99.90
2489;DHT22;1255;48.716;9.124;2023-05-02T06:02:36;10.30;99.90
2489;DHT22;1255;48.716;9.124;2023-05-02T06:05:03;10.30;99.90
2489;DHT22;1255;48.716;9.124;2023-05-02T06:07:29;10.30;99.90
2489;DHT22;1255;48.716;9.124;2023-05-02T06:09:56;10.30;99.90
2489;DHT22;1255;48.716;9.124;2023-05-02T06:12:23;10.30;99.90
2489;DHT22;1255;48.716;9.124;2023-05-02T06:14:51;10.30;99.90
2489;DHT22;1255;48.716;9.124;2023-05-02T06:17:18;10.40;99.90
2489;DHT22;1255;48.716;9.124;2023-05-02T06:19:45;10.40;99.90
2489;DHT22;1255;48.716;9.124;2023-05-02T06:22:11;10.40;99.90
2489;DHT22;1255;48.716;9.124;2023-05-02T06:24:38;10.50;99.90
2489;DHT22;1255;48.716;9.124;2023-05-02T06:27:05;10.50;99.90
2489;DHT22;1255;48.716;9.124;2023-05-02T06:29:31;10.50;99.90
2489;DHT22;1255;48.716;9.124;2023-05-02T06:31:59;10.50;99.90
2489;DHT22;1255;48.716;9.124;2023-05-02T06:34:26;10.50;99.90
2489;DHT22;1255;48.716;9.124;2023-05-02T06:36:53;10.50;99.90
2489;DHT22;1255;48.716;9.124;2023-05-02T06:39:21;10.50;99.90
2489;DHT22;1255;48.716;9.124;2023-05-02T06:41:48;10.60;99.90
2489;DHT22;1255;48.716;9.124;2023-05-02T06:44:15;10.60;99.90
2489;DHT22;1255;48.716;9.124;2023-05-02T06:46:41;10.70;99.90
2489;DHT22;1255;48.716;9.124;2023-05-02T06:49:09;10.70;99.90
2489;DHT22;1255;48.716;9.124;2023-05-02T06:51:36;10.80;99.90
2489;DHT22;1255;48.716;9.124;2023-05-02T06:54:03;10.90;99.90
2489;DHT22;1255;48.716;9.124;2023-05-02T06:56:29;11.10;99.90
2489;DHT22;1255;48.716;9.124;2023-05-02T06:58:56;11.10;99.90
2489;DHT22;1255;48.716;9.124;2023-05-02T07:01:23;11.10;99.90
2489;DHT22;1255;48.716;9.124;2023-05-02T07:03:50;11.20;99.90
2489;DHT22;1255;48.716;9.124;2023-05-02T07:06:18;11.20;99.90
2489;DHT22;1255;48.716;9.124;2023-05-02T07:08:45;11.20;99.90
2489;DHT22;1255;48.716;9.124;2023-05-02T07:11:11;11.20;99.90
2489;DHT22;1255;48.716;9.124;2023-05-02T07:13:38;11.30;99.90
2489;DHT22;1255;48.716;9.124;2023-05-02T07:16:06;11.30;99.90
2489;DHT22;1255;48.716;9.124;2023-05-02T07:18:51;11.30;99.90
2489;DHT22;1255;48.716;9.124;2023-05-02T07:21:23;11.30;99.90
2489;DHT22;1255;48.716;9.124;2023-05-02T07:23:50;11.30;99.90
2489;DHT22;1255;48.716;9.124;2023-05-02T07:26:19;11.40;99.90
2489;DHT22;1255;48.716;9.124;2023-05-02T07:28:49;11.30;99.90
2489;DHT22;1255;48.716;9.124;2023-05-02T07:31:16;11.40;99.90
2489;DHT22;1255;48.716;9.124;2023-05-02T07:33:43;11.40;99.90
2489;DHT22;1255;48.716;9.124;2023-05-02T07:36:11;11.40;99.90
2489;DHT22;1255;48.716;9.124;2023-05-02T07:38:45;11.50;99.90
2489;DHT22;1255;48.716;9.124;2023-05-02T07:41:26;11.50;99.90
2489;DHT22;1255;48.716;9.124;2023-05-02T07:43:52;11.60;99.90
2489;DHT22;1255;48.716;9.124;2023-05-02T07:46:20;11.70;99.90
2489;DHT22;1255;48.716;9.124;2023-05-02T07:48:46;11.70;99.90
2489;DHT22;1255;48.716;9.124;2023-05-02T07:51:13;11.80;99.90
2489;DHT22;1255;48.716;9.124;2023-05-02T07:53:42;11.90;99.90
2489;DHT22;1255;48.716;9.124;2023-05-02T07:56:08;12.00;99.90
2489;DHT22;1255;48.716;9.124;2023-05-02T07:58:37;12.00;99.90
2489;DHT22;1255;48.716;9.124;2023-05-02T08:01:04;12.20;99.90
2489;DHT22;1255;48.716;9.124;2023-05-02T08:03:31;12.40;99.90
2489;DHT22;1255;48.716;9.124;2023-05-02T08:05:57;12.40;99.90
2489;DHT22;1255;48.716;9.124;2023-05-02T08:08:26;12.70;99.90
2489;DHT22;1255;48.716;9.124;2023-05-02T08:10:54;12.80;99.90
2489;DHT22;1255;48.716;9.124;2023-05-02T08:13:21;12.90;99.90
2489;DHT22;1255;48.716;9.124;2023-05-02T08:15:48;13.00;99.90
2489;DHT22;1255;48.716;9.124;2023-05-02T08:21:36;13.10;99.90
2489;DHT22;1255;48.716;9.124;2023-05-02T08:24:04;13.10;99.90
2489;DHT22;1255;48.716;9.124;2023-05-02T08:26:32;13.20;99.90
2489;DHT22;1255;48.716;9.124;2023-05-02T08:28:59;13.00;99.90
2489;DHT22;1255;48.716;9.124;2023-05-02T08:31:28;12.90;99.90
2489;DHT22;1255;48.716;9.124;2023-05-02T08:33:55;12.90;99.90
2489;DHT22;1255;48.716;9.124;2023-05-02T08:36:23;12.80;99.90
2489;DHT22;1255;48.716;9.124;2023-05-02T08:38:51;12.70;99.90
2489;DHT22;1255;48.716;9.124;2023-05-02T08:41:18;12.70;99.90
2489;DHT22;1255;48.716;9.124;2023-05-02T08:43:46;12.90;99.90
2489;DHT22;1255;48.716;9.124;2023-05-02T08:46:14;13.10;99.90
2489;DHT22;1255;48.716;9.124;2023-05-02T08:48:42;13.30;99.90
2489;DHT22;1255;48.716;9.124;2023-05-02T08:51:13;13.50;99.90
2489;DHT22;1255;48.716;9.124;2023-05-02T08:53:41;13.80;99.90
2489;DHT22;1255;48.716;9.124;2023-05-02T08:56:10;14.10;99.90
2489;DHT22;1255;48.716;9.124;2023-05-02T08:58:38;14.30;99.90
2489;DHT22;1255;48.716;9.124;2023-05-02T09:01:12;14.50;99.90
2489;DHT22;1255;48.716;9.124;2023-05-02T09:03:43;14.70;99.90
2489;DHT22;1255;48.716;9.124;2023-05-02T09:06:11;14.80;99.90
2489;DHT22;1255;48.716;9.124;2023-05-02T09:08:40;15.00;99.90
2489;DHT22;1255;48.716;9.124;2023-05-02T09:11:08;15.20;99.90
2489;DHT22;1255;48.716;9.124;2023-05-02T09:13:36;15.40;99.90
2489;DHT22;1255;48.716;9.124;2023-05-02T09:16:06;15.60;99.90
2489;DHT22;1255;48.716;9.124;2023-05-02T09:18:35;15.70;99.90
2489;DHT22;1255;48.716;9.124;2023-05-02T09:21:04;15.70;99.90
2489;DHT22;1255;48.716;9.124;2023-05-02T09:23:38;15.80;99.90
2489;DHT22;1255;48.716;9.124;2023-05-02T09:26:13;15.80;99.90
2489;DHT22;1255;48.716;9.124;2023-05-02T09:28:42;15.90;99.90
2489;DHT22;1255;48.716;9.124;2023-05-02T09:31:11;16.10;99.90
2489;DHT22;1255;48.716;9.124;2023-05-02T09:33:41;16.10;99.90
2489;DHT22;1255;48.716;9.124;2023-05-02T09:36:10;16.40;99.90
2489;DHT22;1255;48.716;9.124;2023-05-02T09:38:39;16.60;99.90
2489;DHT22;1255;48.716;9.124;2023-05-02T09:41:06;16.80;99.90
2489;DHT22;1255;48.716;9.124;2023-05-02T09:43:32;16.70;99.90
2489;DHT22;1255;48.716;9.124;2023-05-02T09:46:00;16.80;99.90
2489;DHT22;1255;48.716;9.124;2023-05-02T09:48:28;16.80;99.90
2489;DHT22;1255;48.716;9.124;2023-05-02T09:50:57;16.70;99.90
2489;DHT22;1255;48.716;9.124;2023-05-02T09:53:24;16.70;99.90
2489;DHT22;1255;48.716;9.124;2023-05-02T09:55:59;17.00;99.90
2489;DHT22;1255;48.716;9.124;2023-05-02T09:58:26;17.80;99.90
2489;DHT22;1255;48.716;9.124;2023-05-02T10:00:53;19.20;99.90
2489;DHT22;1255;48.716;9.124;2023-05-02T10:03:23;20.10;99.90
2489;DHT22;1255;48.716;9.124;2023-05-02T10:05:50;20.90;99.90
2489;DHT22;1255;48.716;9.124;2023-05-02T10:08:20;21.20;99.90
2489;DHT22;1255;48.716;9.124;2023-05-02T10:10:50;21.30;99.90
2489;DHT22;1255;48.716;9.124;2023-05-02T10:13:19;21.30;99.90
2489;DHT22;1255;48.716;9.124;2023-05-02T10:15:49;21.70;99.90
2489;DHT22;1255;48.716;9.124;2023-05-02T10:18:23;21.90;99.90
2489;DHT22;1255;48.716;9.124;2023-05-02T10:20:55;21.60;99.90
2489;DHT22;1255;48.716;9.124;2023-05-02T10:23:27;20.70;99.90
2489;DHT22;1255;48.716;9.124;2023-05-02T10:25:54;19.90;99.90
2489;DHT22;1255;48.716;9.124;2023-05-02T10:28:22;19.30;99.90
2489;DHT22;1255;48.716;9.124;2023-05-02T10:30:50;18.80;99.90
2489;DHT22;1255;48.716;9.124;2023-05-02T10:33:19;18.50;99.90
2489;DHT22;1255;48.716;9.124;2023-05-02T10:35:46;18.20;99.90
2489;DHT22;1255;48.716;9.124;2023-05-02T10:38:15;18.00;99.90
2489;DHT22;1255;48.716;9.124;2023-05-02T10:40:52;17.70;99.90
2489;DHT22;1255;48.716;9.124;2023-05-02T10:43:25;18.10;99.90
2489;DHT22;1255;48.716;9.124;2023-05-02T10:45:53;19.10;99.90
2489;DHT22;1255;48.716;9.124;2023-05-02T10:48:21;20.60;99.90
2489;DHT22;1255;48.716;9.124;2023-05-02T10:50:50;21.90;99.90
2489;DHT22;1255;48.716;9.124;2023-05-02T10:53:25;22.90;99.90
2489;DHT22;1255;48.716;9.124;2023-05-02T10:56:12;23.20;99.80
2489;DHT22;1255;48.716;9.124;2023-05-02T10:58:40;23.30;99.60
2489;DHT22;1255;48.716;9.124;2023-05-02T11:01:34;23.50;99.90
2489;DHT22;1255;48.716;9.124;2023-05-02T11:04:06;24.00;98.30
2489;DHT22;1255;48.716;9.124;2023-05-02T11:06:34;24.30;98.40
2489;DHT22;1255;48.716;9.124;2023-05-02T11:09:31;24.50;98.30
2489;DHT22;1255;48.716;9.124;2023-05-02T11:12:03;24.30;97.20
2489;DHT22;1255;48.716;9.124;2023-05-02T11:14:43;23.40;98.70
2489;DHT22;1255;48.716;9.124;2023-05-02T11:17:12;22.60;99.10
2489;DHT22;1255;48.716;9.124;2023-05-02T11:22:56;21.50;98.90
2489;DHT22;1255;48.716;9.124;2023-05-02T11:25:31;21.10;99.90
2489;DHT22;1255;48.716;9.124;2023-05-02T11:27:59;21.00;99.80
2489;DHT22;1255;48.716;9.124;2023-05-02T11:30:40;20.90;99.10
2489;DHT22;1255;48.716;9.124;2023-05-02T11:33:15;20.40;98.40
2489;DHT22;1255;48.716;9.124;2023-05-02T11:35:43;20.00;98.80
2489;DHT22;1255;48.716;9.124;2023-05-02T11:38:12;19.70;99.90
2489;DHT22;1255;48.716;9.124;2023-05-02T11:40:40;19.50;99.90
2489;DHT22;1255;48.716;9.124;2023-05-02T11:43:15;19.20;99.90
2489;DHT22;1255;48.716;9.124;2023-05-02T11:45:42;19.20;99.90
2489;DHT22;1255;48.716;9.124;2023-05-02T11:48:11;19.90;99.90
2489;DHT22;1255;48.716;9.124;2023-05-02T11:50:41;20.70;99.60
2489;DHT22;1255;48.716;9.124;2023-05-02T11:53:11;21.60;99.10
2489;DHT22;1255;48.716;9.124;2023-05-02T11:55:44;22.50;99.10
2489;DHT22;1255;48.716;9.124;2023-05-02T11:58:14;23.40;97.50
2489;DHT22;1255;48.716;9.124;2023-05-02T12:00:41;23.80;97.40
2489;DHT22;1255;48.716;9.124;2023-05-02T12:03:27;24.10;96.70
2489;DHT22;1255;48.716;9.124;2023-05-02T12:05:55;24.00;95.40
2489;DHT22;1255;48.716;9.124;2023-05-02T12:08:23;23.50;94.20
2489;DHT22;1255;48.716;9.124;2023-05-02T12:10:52;22.80;95.90
2489;DHT22;1255;48.716;9.124;2023-05-02T12:13:22;22.30;97.20
2489;DHT22;1255;48.716;9.124;2023-05-02T12:15:50;22.60;97.30
2489;DHT22;1255;48.716;9.124;2023-05-02T12:18:18;23.10;94.50
2489;DHT22;1255;48.716;9.124;2023-05-02T12:20:48;23.60;96.20
2489;DHT22;1255;48.716;9.124;2023-05-02T12:23:16;23.60;96.40
2489;DHT22;1255;48.716;9.124;2023-05-02T12:25:43;22.80;96.30
2489;DHT22;1255;48.716;9.124;2023-05-02T12:28:10;22.40;96.80
2489;DHT22;1255;48.716;9.124;2023-05-02T12:30:38;22.60;98.10
2489;DHT22;1255;48.716;9.124;2023-05-02T12:33:06;23.20;95.10
2489;DHT22;1255;48.716;9.124;2023-05-02T12:35:33;23.80;97.20
2489;DHT22;1255;48.716;9.124;2023-05-02T12:38:11;24.30;95.90
2489;DHT22;1255;48.716;9.124;2023-05-02T12:40:45;24.90;95.50
2489;DHT22;1255;48.716;9.124;2023-05-02T12:43:12;25.10;95.00
2489;DHT22;1255;48.716;9.124;2023-05-02T12:45:40;25.20;94.20
2489;DHT22;1255;48.716;9.124;2023-05-02T12:48:18;25.30;94.70
2489;DHT22;1255;48.716;9.124;2023-05-02T12:50:45;25.10;95.40
2489;DHT22;1255;48.716;9.124;2023-05-02T12:53:12;25.20;94.80
2489;DHT22;1255;48.716;9.124;2023-05-02T12:55:39;25.30;94.90
2489;DHT22;1255;48.716;9.124;2023-05-02T12:58:07;25.40;94.80
2489;DHT22;1255;48.716;9.124;2023-05-02T13:00:36;25.50;94.20
2489;DHT22;1255;48.716;9.124;2023-05-02T13:03:05;25.40;94.40
2489;DHT22;1255;48.716;9.124;2023-05-02T13:05:32;25.20;94.60
2489;DHT22;1255;48.716;9.124;2023-05-02T13:07:59;24.80;93.90
2489;DHT22;1255;48.716;9.124;2023-05-02T13:10:26;24.40;95.50
2489;DHT22;1255;48.716;9.124;2023-05-02T13:12:53;24.00;94.90
2489;DHT22;1255;48.716;9.124;2023-05-02T13:15:21;24.00;95.50
2489;DHT22;1255;48.716;9.124;2023-05-02T13:17:49;24.20;95.40
2489;DHT22;1255;48.716;9.124;2023-05-02T13:20:18;24.20;94.10
2489;DHT22;1255;48.716;9.124;2023-05-02T13:22:45;23.80;93.80
2489;DHT22;1255;48.716;9.124;2023-05-02T13:25:11;23.40;94.50
2489;DHT22;1255;48.716;9.124;2023-05-02T13:27:38;23.10;93.80
2489;DHT22;1255;48.716;9.124;2023-05-02T13:30:07;22.70;93.90
2489;DHT22;1255;48.716;9.124;2023-05-02T13:32:34;22.10;93.80
2489;DHT22;1255;48.716;9.124;2023-05-02T13:35:00;21.40;95.20
2489;DHT22;1255;48.716;9.124;2023-05-02T13:37:29;20.60;96.40
2489;DHT22;1255;48.716;9.124;2023-05-02T13:39:56;20.20;96.50
2489;DHT22;1255;48.716;9.124;2023-05-02T13:42:23;19.90;97.70
2489;DHT22;1255;48.716;9.124;2023-05-02T13:44:50;19.40;96.90
2489;DHT22;1255;48.716;9.124;2023-05-02T13:47:16;19.00;98.30
2489;DHT22;1255;48.716;9.124;2023-05-02T13:49:43;18.80;98.70
2489;DHT22;1255;48.716;9.124;2023-05-02T13:52:10;18.70;97.70
2489;DHT22;1255;48.716;9.124;2023-05-02T13:54:38;18.80;98.70
2489;DHT22;1255;48.716;9.124;2023-05-02T13:57:05;18.90;98.90
2489;DHT22;1255;48.716;9.124;2023-05-02T13:59:32;18.90;97.90
2489;DHT22;1255;48.716;9.124;2023-05-02T14:01:58;18.90;97.80
2489;DHT22;1255;48.716;9.124;2023-05-02T14:04:27;19.10;96.90
2489;DHT22;1255;48.716;9.124;2023-05-02T14:06:54;19.10;98.40
2489;DHT22;1255;48.716;9.124;2023-05-02T14:09:20;19.40;98.50
2489;DHT22;1255;48.716;9.124;2023-05-02T14:11:49;19.90;98.70
2489;DHT22;1255;48.716;9.124;2023-05-02T14:14:15;20.30;97.40
2489;DHT22;1255;48.716;9.124;2023-05-02T14:16:42;20.60;97.30
2489;DHT22;1255;48.716;9.124;2023-05-02T14:19:09;20.90;96.60
2489;DHT22;1255;48.716;9.124;2023-05-02T14:21:35;20.90;96.30
2489;DHT22;1255;48.716;9.124;2023-05-02T14:24:03;21.20;97.70
2489;DHT22;1255;48.716;9.124;2023-05-02T14:26:30;21.40;96.90
2489;DHT22;1255;48.716;9.124;2023-05-02T14:28:59;21.20;96.30
2489;DHT22;1255;48.716;9.124;2023-05-02T14:31:26;21.20;96.50
2489;DHT22;1255;48.716;9.124;2023-05-02T14:33:52;21.30;96.10
2489;DHT22;1255;48.716;9.124;2023-05-02T14:36:19;21.30;95.90
2489;DHT22;1255;48.716;9.124;2023-05-02T14:38:46;21.40;96.60
2489;DHT22;1255;48.716;9.124;2023-05-02T14:41:12;21.40;95.60
2489;DHT22;1255;48.716;9.124;2023-05-02T14:43:39;21.70;95.50
2489;DHT22;1255;48.716;9.124;2023-05-02T14:46:07;21.80;96.10
2489;DHT22;1255;48.716;9.124;2023-05-02T14:48:34;21.80;95.70
2489;DHT22;1255;48.716;9.124;2023-05-02T14:51:02;21.90;96.40
2489;DHT22;1255;48.716;9.124;2023-05-02T14:53:29;21.90;96.00
2489;DHT22;1255;48.716;9.124;2023-05-02T14:55:56;21.80;95.80
2489;DHT22;1255;48.716;9.124;2023-05-02T14:58:23;21.70;95.60
2489;DHT22;1255;48.716;9.124;2023-05-02T15:00:49;21.60;95.80
2489;DHT22;1255;48.716;9.124;2023-05-02T15:03:18;21.50;95.30
2489;DHT22;1255;48.716;9.124;2023-05-02T15:05:45;21.70;95.80
2489;DHT22;1255;48.716;9.124;2023-05-02T15:08:11;21.70;96.10
2489;DHT22;1255;48.716;9.124;2023-05-02T15:10:38;21.40;95.50
2489;DHT22;1255;48.716;9.124;2023-05-02T15:13:05;21.20;95.10
2489;DHT22;1255;48.716;9.124;2023-05-02T15:15:33;21.10;96.10
2489;DHT22;1255;48.716;9.124;2023-05-02T15:17:59;21.20;95.40
2489;DHT22;1255;48.716;9.124;2023-05-02T15:20:27;21.40;96.20
2489;DHT22;1255;48.716;9.124;2023-05-02T15:22:54;21.40;96.90
2489;DHT22;1255;48.716;9.124;2023-05-02T15:25:23;21.40;96.30
2489;DHT22;1255;48.716;9.124;2023-05-02T15:27:50;21.50;96.50
2489;DHT22;1255;48.716;9.124;2023-05-02T15:30:17;21.60;96.60
2489;DHT22;1255;48.716;9.124;2023-05-02T15:32:43;21.60;96.60
2489;DHT22;1255;48.716;9.124;2023-05-02T15:35:10;21.60;96.50
2489;DHT22;1255;48.716;9.124;2023-05-02T15:37:41;21.50;94.90
2489;DHT22;1255;48.716;9.124;2023-05-02T15:40:09;21.20;95.30
2489;DHT22;1255;48.716;9.124;2023-05-02T15:42:36;21.20;95.50
2489;DHT22;1255;48.716;9.124;2023-05-02T15:45:03;21.00;94.90
2489;DHT22;1255;48.716;9.124;2023-05-02T15:47:30;20.90;95.40
2489;DHT22;1255;48.716;9.124;2023-05-02T15:49:57;20.80;95.50
2489;DHT22;1255;48.716;9.124;2023-05-02T15:52:24;20.60;95.50
2489;DHT22;1255;48.716;9.124;2023-05-02T15:54:52;20.50;95.60
2489;DHT22;1255;48.716;9.124;2023-05-02T15:57:20;20.30;95.80
2489;DHT22;1255;48.716;9.124;2023-05-02T15:59:47;20.30;96.30
2489;DHT22;1255;48.716;9.124;2023-05-02T16:02:14;20.40;96.10
2489;DHT22;1255;48.716;9.124;2023-05-02T16:04:41;20.20;95.00
2489;DHT22;1255;48.716;9.124;2023-05-02T16:07:08;20.00;94.90
2489;DHT22;1255;48.716;9.124;2023-05-02T16:09:35;19.80;95.40
2489;DHT22;1255;48.716;9.124;2023-05-02T16:12:05;19.90;96.10
2489;DHT22;1255;48.716;9.124;2023-05-02T16:14:32;19.80;95.60
2489;DHT22;1255;48.716;9.124;2023-05-02T16:16:59;19.80;95.10
2489;DHT22;1255;48.716;9.124;2023-05-02T16:19:26;19.50;95.00
2489;DHT22;1255;48.716;9.124;2023-05-02T16:21:52;19.40;95.00
2489;DHT22;1255;48.716;9.124;2023-05-02T16:24:19;19.50;95.90
2489;DHT22;1255;48.716;9.124;2023-05-02T16:26:46;19.50;96.20